Time;durP1;ratioP1;P1;durP2;ratioP2;P2;SDS_P1;SDS_P2;PMS_P1;PMS_P2;Temp;Humidity;BMP_temperature;BMP_pressure;BME280_temperature;BME280_humidity;BME280_pressure;Samples;Min_cycle;Max_cycle;Signal;HPM_P1;HPM_P2
2023/09/01 00:02:47;;;;;;;0.00;0.00;;;11.30;99.90;;;;;;5035967;28;20091;-70
2023/09/01 00:08:53;;;;;;;0.13;0.13;;;11.30;99.90;;;;;;5044601;28;20060;-70
2023/09/01 00:15:00;;;;;;;0.05;0.05;;;11.30;99.90;;;;;;5038740;28;20063;-69
2023/09/01 00:21:06;;;;;;;0.10;0.10;;;11.30;99.90;;;;;;5039376;28;20452;-69
2023/09/01 00:27:12;;;;;;;0.00;0.00;;;11.30;99.90;;;;;;5041966;28;20031;-70
2023/09/01 00:29:38;;;;;;;0.10;0.10;;;11.30;99.90;;;;;;5085580;28;20395;-69
2023/09/01 00:35:45;;;;;;;0.28;0.28;;;11.40;99.90;;;;;;5045536;28;20079;-69
2023/09/01 00:38:10;;;;;;;0.20;0.20;;;11.40;99.90;;;;;;5052312;28;20048;-69
2023/09/01 00:41:06;;;;;;;0.20;0.20;;;11.40;99.90;;;;;;5050464;28;20037;-69
2023/09/01 00:43:31;;;;;;;0.10;0.10;;;11.40;99.90;;;;;;5051963;28;20501;-69
2023/09/01 00:49:38;;;;;;;0.20;0.20;;;11.30;99.90;;;;;;5033168;28;20067;-70
2023/09/01 00:52:56;;;;;;;0.45;0.45;;;11.30;99.90;;;;;;5045851;28;20077;-70
2023/09/01 01:02:44;;;;;;;0.10;0.10;;;11.20;99.90;;;;;;5045039;28;20514;-69
2023/09/01 01:09:43;;;;;;;0.22;0.22;;;11.10;99.90;;;;;;5051360;28;20048;-69
2023/09/01 01:12:21;;;;;;;0.20;0.10;;;11.10;99.90;;;;;;5042884;28;20066;-70
2023/09/01 01:18:29;;;;;;;1.55;0.40;;;11.00;99.90;;;;;;5044833;28;20494;-69
2023/09/01 01:21:06;;;;;;;0.28;0.28;;;11.00;99.90;;;;;;5050405;28;20048;-69
2023/09/01 01:23:48;;;;;;;0.60;0.60;;;11.00;99.90;;;;;;5083035;28;20044;-69
2023/09/01 01:26:15;;;;;;;0.20;0.20;;;11.00;99.90;;;;;;5049901;28;20498;-70
2023/09/01 01:28:40;;;;;;;0.40;0.20;;;11.00;99.90;;;;;;5051009;28;20033;-69
2023/09/01 01:35:04;;;;;;;0.10;0.10;;;11.10;99.90;;;;;;5050297;28;20443;-69
2023/09/01 01:37:39;;;;;;;;;;;11.10;99.90;;;;;;5049924;28;20072;-70
2023/09/01 01:40:35;;;;;;;0.08;0.08;;;11.10;99.90;;;;;;5049702;28;19927;-70
2023/09/01 01:43:04;;;;;;;0.10;0.10;;;11.10;99.90;;;;;;5065166;28;20041;-69
2023/09/01 01:49:28;;;;;;;0.25;0.13;;;11.10;99.90;;;;;;5051794;28;20036;-69
2023/09/01 01:55:35;;;;;;;0.00;0.00;;;11.10;99.90;;;;;;5050357;28;20159;-69
2023/09/01 01:58:01;;;;;;;0.10;0.10;;;11.10;99.90;;;;;;5038643;28;20128;-70
2023/09/01 02:00:27;;;;;;;0.30;0.30;;;11.10;99.90;;;;;;5053595;28;20045;-70
2023/09/01 02:03:17;;;;;;;0.10;0.10;;;11.10;99.90;;;;;;5053071;28;20041;-70
2023/09/01 02:09:24;;;;;;;0.10;0.10;;;11.10;99.90;;;;;;5054056;28;20056;-69
2023/09/01 02:15:31;;;;;;;0.28;0.20;;;11.20;99.90;;;;;;5036335;28;20028;-70
2023/09/01 02:17:57;;;;;;;0.10;0.10;;;11.20;99.90;;;;;;5049376;28;20131;-69
2023/09/01 02:24:22;;;;;;;0.10;0.10;;;11.20;99.90;;;;;;5047474;28;20048;-70
2023/09/01 02:27:25;;;;;;;0.15;0.15;;;11.30;99.90;;;;;;5055758;28;20471;-70
2023/09/01 02:30:40;;;;;;;0.10;0.10;;;11.20;99.90;;;;;;5053086;28;20048;-69
2023/09/01 02:37:12;;;;;;;0.63;0.20;;;11.30;99.90;;;;;;5040039;28;20036;-69
2023/09/01 02:39:37;;;;;;;0.28;0.25;;;11.30;99.90;;;;;;5035501;28;20114;-69
2023/09/01 02:45:44;;;;;;;0.45;0.45;;;11.30;99.90;;;;;;5035365;28;20040;-69
2023/09/01 02:48:11;;;;;;;0.57;0.57;;;11.30;99.90;;;;;;5046248;28;20037;-70
2023/09/01 02:51:29;;;;;;;0.10;0.10;;;11.30;99.90;;;;;;5070055;28;20040;-69
2023/09/01 02:53:55;;;;;;;0.32;0.32;;;11.20;99.90;;;;;;5046337;28;20483;-70
2023/09/01 02:56:20;;;;;;;0.40;0.40;;;11.20;99.90;;;;;;5050199;28;20112;-70
2023/09/01 02:58:46;;;;;;;1.00;0.90;;;11.20;99.90;;;;;;5049472;28;20380;-70
2023/09/01 03:01:18;;;;;;;0.22;0.22;;;11.20;99.90;;;;;;5077457;28;20045;-70
2023/09/01 03:03:44;;;;;;;0.10;0.10;;;11.10;99.90;;;;;;5048703;28;20045;-70
2023/09/01 03:06:09;;;;;;;1.00;0.22;;;11.10;99.90;;;;;;5050016;28;20052;-69
2023/09/01 03:08:36;;;;;;;0.22;0.22;;;11.10;99.90;;;;;;5049513;28;20041;-70
2023/09/01 03:11:03;;;;;;;0.10;0.10;;;11.10;99.90;;;;;;5047052;28;20112;-70
2023/09/01 03:13:29;;;;;;;2.13;1.05;;;11.10;99.90;;;;;;5049547;28;20039;-70
2023/09/01 03:15:54;;;;;;;0.10;0.10;;;11.10;99.90;;;;;;5046262;28;20482;-70
2023/09/01 03:18:20;;;;;;;0.68;0.68;;;11.10;99.90;;;;;;5067130;28;20041;-70
2023/09/01 03:21:11;;;;;;;0.28;0.20;;;11.10;99.90;;;;;;5052024;28;20582;-70
2023/09/01 03:23:37;;;;;;;0.10;0.10;;;11.10;99.90;;;;;;5083767;28;20097;-70
2023/09/01 03:26:05;;;;;;;0.10;0.10;;;11.10;99.90;;;;;;5052953;28;20040;-70
2023/09/01 03:28:33;;;;;;;0.15;0.15;;;11.00;99.90;;;;;;5066938;28;20052;-70
2023/09/01 03:30:59;;;;;;;0.45;0.30;;;11.00;99.90;;;;;;5050792;28;20471;-69
2023/09/01 03:33:27;;;;;;;0.28;0.28;;;11.00;99.90;;;;;;5053259;28;20052;-70
2023/09/01 03:35:52;;;;;;;0.10;0.10;;;11.00;99.90;;;;;;5051649;28;20047;-70
2023/09/01 03:38:18;;;;;;;0.05;0.05;;;10.90;99.90;;;;;;5050927;28;20396;-69
2023/09/01 03:41:02;;;;;;;0.20;0.20;;;10.90;99.90;;;;;;5041588;28;20472;-69
2023/09/01 03:43:27;;;;;;;0.35;0.20;;;10.90;99.90;;;;;;5050900;28;20045;-70
2023/09/01 03:45:53;;;;;;;0.35;0.10;;;10.90;99.90;;;;;;5039013;28;20042;-69
2023/09/01 03:48:18;;;;;;;0.77;0.25;;;10.80;99.90;;;;;;5046679;28;20399;-70
2023/09/01 03:50:44;;;;;;;0.43;0.43;;;10.80;99.90;;;;;;5052430;28;20088;-70
2023/09/01 03:53:10;;;;;;;0.35;0.10;;;10.80;99.90;;;;;;5074882;28;20048;-70
2023/09/01 03:55:35;;;;;;;0.10;0.10;;;10.80;99.90;;;;;;5037627;28;20033;-70
2023/09/01 03:58:01;;;;;;;0.17;0.17;;;10.80;99.90;;;;;;5046752;28;20760;-70
2023/09/01 04:00:27;;;;;;;1.10;0.80;;;10.80;99.90;;;;;;5046834;28;20041;-69
2023/09/01 04:03:31;;;;;;;0.95;0.25;;;10.80;99.90;;;;;;5083704;28;20049;-70
2023/09/01 04:05:57;;;;;;;0.00;0.00;;;10.80;99.90;;;;;;5046588;28;20044;-69
2023/09/01 04:08:23;;;;;;;1.08;0.40;;;10.80;99.90;;;;;;5049327;28;20120;-69
2023/09/01 04:10:49;;;;;;;0.10;0.10;;;10.80;99.90;;;;;;5051397;28;20045;-69
2023/09/01 04:13:14;;;;;;;0.47;0.10;;;10.80;99.90;;;;;;5050370;28;20488;-69
2023/09/01 04:15:41;;;;;;;0.10;0.10;;;10.70;99.90;;;;;;5050564;28;20041;-69
2023/09/01 04:18:06;;;;;;;0.10;0.10;;;10.80;99.90;;;;;;5051793;28;20431;-70
2023/09/01 04:20:32;;;;;;;0.08;0.08;;;10.80;99.90;;;;;;5049776;28;20091;-69
2023/09/01 04:22:57;;;;;;;0.45;0.45;;;10.70;99.90;;;;;;5049855;28;20052;-70
2023/09/01 04:25:23;;;;;;;0.43;0.43;;;10.70;99.90;;;;;;5046101;28;20090;-69
2023/09/01 04:27:48;;;;;;;0.70;0.40;;;10.70;99.90;;;;;;5041977;28;20267;-70
2023/09/01 04:30:14;;;;;;;0.20;0.10;;;10.60;99.90;;;;;;5047835;28;20040;-69
2023/09/01 04:32:43;;;;;;;0.15;0.15;;;10.50;99.90;;;;;;5076685;28;20038;-69
2023/09/01 04:38:50;;;;;;;0.10;0.10;;;10.50;99.90;;;;;;5045552;28;20035;-70
2023/09/01 04:41:16;;;;;;;0.22;0.22;;;10.40;99.90;;;;;;5045768;28;20041;-69
2023/09/01 04:43:42;;;;;;;0.10;0.10;;;10.40;99.90;;;;;;5047051;28;20412;-68
2023/09/01 04:46:08;;;;;;;0.10;0.10;;;10.40;99.90;;;;;;5059674;28;20135;-69
2023/09/01 04:48:34;;;;;;;0.35;0.32;;;10.30;99.90;;;;;;5040830;28;20045;-69
2023/09/01 04:51:02;;;;;;;0.17;0.17;;;10.30;99.90;;;;;;5057443;28;20059;-70
2023/09/01 04:53:28;;;;;;;0.10;0.10;;;10.30;99.90;;;;;;5041796;28;20545;-70
2023/09/01 04:55:54;;;;;;;0.50;0.20;;;10.30;99.90;;;;;;5047559;28;20049;-69
2023/09/01 04:58:20;;;;;;;0.90;0.10;;;10.40;99.90;;;;;;5049067;28;20472;-69
2023/09/01 05:00:45;;;;;;;0.00;0.00;;;10.40;99.90;;;;;;5051265;28;20045;-69
2023/09/01 05:03:11;;;;;;;0.10;0.10;;;10.50;99.90;;;;;;5046902;28;20041;-69
2023/09/01 05:05:37;;;;;;;0.05;0.05;;;10.50;99.90;;;;;;5047213;28;20507;-71
2023/09/01 05:08:03;;;;;;;0.15;0.15;;;10.50;99.90;;;;;;5047562;28;20415;-69
2023/09/01 05:10:28;;;;;;;0.52;0.35;;;10.50;99.90;;;;;;5077705;28;20047;-69
2023/09/01 05:12:54;;;;;;;0.20;0.10;;;10.50;99.90;;;;;;5043616;28;20033;-69
2023/09/01 05:15:19;;;;;;;0.20;0.20;;;10.60;99.90;;;;;;5050250;28;20044;-69
2023/09/01 05:17:46;;;;;;;0.63;0.38;;;10.60;99.90;;;;;;5048851;28;20102;-69
2023/09/01 05:20:11;;;;;;;0.20;0.20;;;10.60;99.90;;;;;;5050523;28;20045;-69
2023/09/01 05:22:37;;;;;;;0.85;0.22;;;10.60;99.90;;;;;;5047796;28;20072;-69
2023/09/01 05:25:03;;;;;;;0.00;0.00;;;10.60;99.90;;;;;;5074125;28;20078;-69
2023/09/01 05:27:29;;;;;;;0.77;0.43;;;10.60;99.90;;;;;;5041547;28;20059;-70
2023/09/01 05:29:55;;;;;;;0.32;0.25;;;10.70;99.90;;;;;;5043524;28;20048;-70
2023/09/01 05:32:57;;;;;;;0.32;0.32;;;10.70;99.90;;;;;;5039925;28;20679;-70
2023/09/01 05:35:23;;;;;;;1.08;0.40;;;10.70;99.90;;;;;;5071815;28;20036;-70
2023/09/01 05:37:48;;;;;;;0.43;0.35;;;10.70;99.90;;;;;;5041448;28;20037;-70
2023/09/01 05:40:14;;;;;;;1.00;0.43;;;10.70;99.90;;;;;;5045729;28;20048;-69
2023/09/01 05:42:39;;;;;;;0.38;0.38;;;10.70;99.90;;;;;;5043419;28;20037;-70
2023/09/01 05:45:06;;;;;;;0.10;0.10;;;10.80;99.90;;;;;;5042534;28;20036;-70
2023/09/01 05:47:31;;;;;;;0.20;0.20;;;10.80;99.90;;;;;;5041066;28;20041;-70
2023/09/01 05:49:57;;;;;;;0.30;0.25;;;10.90;99.90;;;;;;5044428;28;20528;-70
2023/09/01 05:52:22;;;;;;;0.20;0.20;;;10.90;99.90;;;;;;5075379;28;20029;-70
2023/09/01 05:54:48;;;;;;;0.00;0.00;;;11.00;99.90;;;;;;5043387;28;20040;-70
2023/09/01 05:57:13;;;;;;;0.20;0.20;;;11.10;99.90;;;;;;5043393;28;20039;-70
2023/09/01 05:59:39;;;;;;;1.17;0.43;;;11.10;99.90;;;;;;5044278;28;20033;-70
2023/09/01 06:02:05;;;;;;;1.08;0.80;;;11.20;99.90;;;;;;5045296;28;20442;-70
2023/09/01 06:04:30;;;;;;;0.95;0.30;;;11.30;99.90;;;;;;5039113;28;20041;-71
2023/09/01 06:06:56;;;;;;;0.10;0.10;;;11.40;99.90;;;;;;5077727;28;20076;-71
2023/09/01 06:09:21;;;;;;;0.40;0.40;;;11.50;99.90;;;;;;5045995;28;20040;-70
2023/09/01 06:11:47;;;;;;;0.75;0.63;;;11.50;99.90;;;;;;5042389;28;20414;-70
2023/09/01 06:14:12;;;;;;;0.30;0.30;;;11.60;99.90;;;;;;5045761;28;20506;-70
2023/09/01 06:16:38;;;;;;;0.55;0.55;;;11.70;99.90;;;;;;5043414;28;20394;-71
2023/09/01 06:19:04;;;;;;;0.43;0.30;;;11.80;99.90;;;;;;5084207;28;20464;-71
2023/09/01 06:21:30;;;;;;;0.10;0.10;;;11.90;99.90;;;;;;5043549;28;20037;-70
2023/09/01 06:23:56;;;;;;;0.10;0.10;;;12.00;99.90;;;;;;5073481;28;20085;-71
2023/09/01 06:26:22;;;;;;;0.85;0.10;;;12.10;99.90;;;;;;5047905;28;20091;-70
2023/09/01 06:28:48;;;;;;;0.80;0.35;;;12.10;99.90;;;;;;5047359;28;20550;-70
2023/09/01 06:31:16;;;;;;;0.10;0.10;;;12.20;99.90;;;;;;5049184;28;20070;-70
2023/09/01 06:33:42;;;;;;;0.30;0.30;;;12.30;99.90;;;;;;5033707;28;20033;-70
2023/09/01 06:36:13;;;;;;;0.10;0.10;;;12.40;99.90;;;;;;5046382;28;20077;-71
2023/09/01 06:38:41;;;;;;;0.00;0.00;;;12.40;99.90;;;;;;5046558;28;20074;-70
2023/09/01 06:41:07;;;;;;;2.75;0.38;;;12.50;99.90;;;;;;5048118;28;20119;-71
2023/09/01 06:43:33;;;;;;;0.75;0.75;;;12.60;99.90;;;;;;5043284;28;20511;-71
2023/09/01 06:46:03;;;;;;;0.35;0.22;;;12.70;99.90;;;;;;5027555;28;20419;-70
2023/09/01 06:48:30;;;;;;;2.40;0.30;;;12.80;99.90;;;;;;5047996;28;20037;-72
2023/09/01 06:50:58;;;;;;;0.90;0.70;;;12.90;99.90;;;;;;5047558;28;20042;-71
2023/09/01 06:53:40;;;;;;;0.30;0.30;;;12.90;99.90;;;;;;5051030;28;20038;-71
2023/09/01 06:56:05;;;;;;;0.10;0.10;;;13.00;99.90;;;;;;5053204;28;20091;-71
2023/09/01 06:58:31;;;;;;;0.57;0.43;;;13.00;99.90;;;;;;5052844;28;20468;-72
2023/09/01 07:00:58;;;;;;;1.50;1.08;;;13.10;99.90;;;;;;5054247;28;20043;-72
2023/09/01 07:03:24;;;;;;;0.30;0.30;;;13.20;99.90;;;;;;5050692;28;20514;-72
2023/09/01 07:05:54;;;;;;;0.32;0.30;;;13.30;99.90;;;;;;5045894;28;20062;-72
2023/09/01 07:08:20;;;;;;;0.70;0.30;;;13.40;99.90;;;;;;5047578;28;20497;-72
2023/09/01 07:10:45;;;;;;;0.20;0.20;;;13.40;99.90;;;;;;5049103;28;20133;-72
2023/09/01 07:13:11;;;;;;;0.35;0.10;;;13.60;99.90;;;;;;5042821;28;20037;-72
2023/09/01 07:15:36;;;;;;;2.55;0.45;;;13.70;99.90;;;;;;5052540;28;20468;-72
2023/09/01 07:18:03;;;;;;;0.90;0.20;;;13.70;99.90;;;;;;5048582;28;20372;-72
2023/09/01 07:24:11;;;;;;;0.20;0.20;;;13.90;99.90;;;;;;5051638;28;20091;-72
2023/09/01 07:26:37;;;;;;;0.28;0.28;;;14.00;99.90;;;;;;5050051;28;20395;-72
2023/09/01 07:29:03;;;;;;;0.52;0.52;;;14.10;99.90;;;;;;5043367;28;20044;-72
2023/09/01 07:31:28;;;;;;;2.90;0.60;;;14.10;99.90;;;;;;5051317;28;20492;-72
2023/09/01 07:33:55;;;;;;;0.38;0.20;;;14.20;99.90;;;;;;5077175;28;20029;-72
2023/09/01 07:36:21;;;;;;;0.47;0.47;;;14.30;99.90;;;;;;5044279;28;20525;-72
2023/09/01 07:38:47;;;;;;;2.03;0.68;;;14.30;99.90;;;;;;5043383;28;20037;-73
2023/09/01 07:41:13;;;;;;;0.10;0.10;;;14.40;99.90;;;;;;5050207;28;20782;-72
2023/09/01 07:43:39;;;;;;;0.30;0.30;;;14.50;99.90;;;;;;5048722;28;20033;-73
2023/09/01 07:46:04;;;;;;;0.22;0.10;;;14.50;99.90;;;;;;5048584;28;20045;-73
2023/09/01 07:48:30;;;;;;;0.43;0.43;;;14.50;99.90;;;;;;5048379;28;20044;-73
2023/09/01 07:50:56;;;;;;;0.85;0.30;;;14.60;99.90;;;;;;5047834;28;20051;-73
2023/09/01 07:53:21;;;;;;;0.30;0.30;;;14.70;99.90;;;;;;5043862;28;20116;-73
2023/09/01 07:55:47;;;;;;;0.20;0.20;;;14.70;99.90;;;;;;5048689;28;20399;-71
2023/09/01 07:58:13;;;;;;;0.40;0.40;;;14.90;99.90;;;;;;5043222;28;20037;-72
2023/09/01 08:00:40;;;;;;;1.48;1.38;;;14.90;99.90;;;;;;5046269;28;20041;-72
2023/09/01 08:03:10;;;;;;;0.73;0.65;;;15.00;99.90;;;;;;5046793;28;20071;-73
2023/09/01 08:05:36;;;;;;;2.55;1.65;;;15.10;99.90;;;;;;5045759;28;20044;-72
2023/09/01 08:08:02;;;;;;;3.30;0.68;;;15.20;99.90;;;;;;5045943;28;20033;-73
2023/09/01 08:10:28;;;;;;;0.80;0.55;;;15.20;99.90;;;;;;5044838;28;20052;-71
2023/09/01 08:12:53;;;;;;;1.73;0.70;;;15.30;99.90;;;;;;5046039;28;20033;-72
2023/09/01 08:15:19;;;;;;;1.23;0.70;;;15.30;99.90;;;;;;5062246;28;20033;-73
2023/09/01 08:17:44;;;;;;;0.30;0.30;;;15.40;99.90;;;;;;5044232;28;20065;-73
2023/09/01 08:20:22;;;;;;;0.30;0.30;;;15.40;99.90;;;;;;5047943;28;20040;-73
2023/09/01 08:22:48;;;;;;;0.80;0.80;;;15.60;99.90;;;;;;5045131;28;20045;-72
2023/09/01 08:25:21;;;;;;;0.32;0.32;;;15.60;99.90;;;;;;5048477;28;20466;-72
2023/09/01 08:27:47;;;;;;;1.55;0.40;;;15.80;99.90;;;;;;5034260;28;20124;-73
2023/09/01 08:30:13;;;;;;;0.95;0.68;;;15.90;99.90;;;;;;5050408;28;20164;-72
2023/09/01 08:32:40;;;;;;;0.52;0.52;;;16.00;99.90;;;;;;5045450;28;20045;-74
2023/09/01 08:35:06;;;;;;;3.42;0.95;;;16.00;99.90;;;;;;5079297;28;20036;-75
2023/09/01 08:37:32;;;;;;;9.25;0.43;;;16.10;99.90;;;;;;5039821;28;20086;-74
2023/09/01 08:39:57;;;;;;;1.92;0.40;;;16.20;99.90;;;;;;5046665;28;20037;-75
2023/09/01 08:42:25;;;;;;;1.55;0.68;;;16.30;99.90;;;;;;5038590;28;20098;-73
2023/09/01 08:44:52;;;;;;;0.95;0.70;;;16.40;99.90;;;;;;5043760;28;20134;-75
2023/09/01 08:47:22;;;;;;;0.80;0.55;;;16.40;99.90;;;;;;5041283;28;20571;-76
2023/09/01 08:49:52;;;;;;;1.10;0.85;;;16.50;99.90;;;;;;5076848;28;20041;-75
2023/09/01 08:52:21;;;;;;;0.75;0.55;;;16.60;99.90;;;;;;5041812;28;20396;-73
2023/09/01 08:54:46;;;;;;;1.65;0.90;;;16.70;99.90;;;;;;5041738;28;20063;-75
2023/09/01 08:57:12;;;;;;;1.17;0.93;;;16.70;99.90;;;;;;5040520;28;20041;-74
2023/09/01 08:59:38;;;;;;;2.28;1.05;;;16.70;99.90;;;;;;5043719;28;20086;-75
2023/09/01 09:02:07;;;;;;;0.38;0.22;;;16.80;99.90;;;;;;5041261;28;20480;-74
2023/09/01 09:04:34;;;;;;;0.28;0.28;;;16.80;99.90;;;;;;5078761;28;20044;-73
2023/09/01 09:07:16;;;;;;;0.43;0.43;;;16.90;99.90;;;;;;5081278;28;20098;-73
2023/09/01 09:09:55;;;;;;;0.80;0.75;;;17.00;99.90;;;;;;5081913;28;20124;-74
2023/09/01 09:12:22;;;;;;;0.22;0.22;;;17.20;99.90;;;;;;5047674;28;20077;-73
2023/09/01 09:14:52;;;;;;;0.50;0.50;;;17.30;99.90;;;;;;5049522;28;20078;-73
2023/09/01 09:17:22;;;;;;;0.68;0.38;;;17.40;99.90;;;;;;5047039;28;20055;-74
2023/09/01 09:19:54;;;;;;;0.10;0.10;;;17.60;99.90;;;;;;5049231;28;20051;-73
2023/09/01 09:22:21;;;;;;;0.00;0.00;;;17.70;99.90;;;;;;5079270;28;20533;-73
2023/09/01 09:24:46;;;;;;;0.63;0.40;;;17.80;99.90;;;;;;5045957;28;20040;-72
2023/09/01 09:27:17;;;;;;;0.43;0.43;;;17.90;99.90;;;;;;5042116;28;20041;-71
2023/09/01 09:29:45;;;;;;;0.17;0.17;;;17.90;99.90;;;;;;5043427;28;20063;-70
2023/09/01 09:32:24;;;;;;;0.88;0.63;;;18.00;99.90;;;;;;5045713;28;20496;-73
2023/09/01 09:35:09;;;;;;;0.73;0.73;;;17.90;99.90;;;;;;5063419;28;20048;-71
2023/09/01 09:37:36;;;;;;;0.20;0.20;;;17.90;99.90;;;;;;5042869;28;20041;-72
2023/09/01 09:40:12;;;;;;;0.60;0.43;;;17.90;99.90;;;;;;5045678;28;20040;-72
2023/09/01 09:42:39;;;;;;;0.73;0.22;;;17.90;99.90;;;;;;5076322;28;20063;-73
2023/09/01 09:45:32;;;;;;;1.55;1.45;;;18.00;99.90;;;;;;5046517;28;20080;-73
2023/09/01 09:48:06;;;;;;;0.35;0.10;;;18.10;99.90;;;;;;5042465;28;20518;-73
2023/09/01 09:50:33;;;;;;;0.10;0.10;;;18.10;99.90;;;;;;5038524;28;20048;-74
2023/09/01 09:53:00;;;;;;;3.70;1.02;;;18.20;99.90;;;;;;5043276;28;20122;-72
2023/09/01 09:55:45;;;;;;;0.45;0.43;;;18.20;99.90;;;;;;5047593;28;20471;-72
2023/09/01 09:58:11;;;;;;;0.13;0.08;;;18.20;99.90;;;;;;5077852;28;20060;-72
2023/09/01 10:00:46;;;;;;;0.10;0.10;;;18.30;99.90;;;;;;5046305;28;20043;-74
2023/09/01 10:03:13;;;;;;;1.30;0.77;;;18.30;99.90;;;;;;5074290;28;20033;-73
2023/09/01 10:05:39;;;;;;;0.10;0.10;;;18.30;99.90;;;;;;5042265;28;20509;-70
2023/09/01 10:08:06;;;;;;;0.10;0.10;;;18.30;99.90;;;;;;5046187;28;20047;-73
2023/09/01 10:10:33;;;;;;;0.30;0.30;;;18.30;99.90;;;;;;5049483;28;20432;-72
2023/09/01 10:13:03;;;;;;;0.32;0.17;;;18.30;99.90;;;;;;5038806;28;20061;-72
2023/09/01 10:15:31;;;;;;;0.15;0.15;;;18.30;99.90;;;;;;5035927;28;20123;-72
2023/09/01 10:18:02;;;;;;;0.38;0.38;;;18.30;99.90;;;;;;5043267;28;20040;-73
2023/09/01 10:20:33;;;;;;;0.45;0.45;;;18.20;99.90;;;;;;5049837;28;20119;-73
2023/09/01 10:23:04;;;;;;;0.47;0.47;;;18.20;99.90;;;;;;5046133;28;20467;-72
2023/09/01 10:25:31;;;;;;;0.22;0.15;;;18.20;99.90;;;;;;5046448;28;20049;-73
2023/09/01 10:28:10;;;;;;;0.17;0.10;;;18.20;99.90;;;;;;5039297;28;20163;-73
2023/09/01 10:30:38;;;;;;;0.63;0.43;;;18.20;99.90;;;;;;5046193;28;20072;-72
2023/09/01 10:33:07;;;;;;;0.20;0.20;;;18.20;99.90;;;;;;5043862;28;20041;-72
2023/09/01 10:35:51;;;;;;;0.47;0.40;;;18.10;99.90;;;;;;5044038;28;20772;-73
2023/09/01 10:38:36;;;;;;;0.22;0.22;;;18.10;99.90;;;;;;5044847;28;20044;-72
2023/09/01 10:41:01;;;;;;;0.10;0.10;;;18.10;99.90;;;;;;5044583;28;20047;-73
2023/09/01 10:43:33;;;;;;;1.08;0.25;;;18.20;99.90;;;;;;5043490;28;20033;-72
2023/09/01 10:46:14;;;;;;;0.80;0.52;;;18.10;99.90;;;;;;5043425;28;20094;-73
2023/09/01 10:49:00;;;;;;;0.00;0.00;;;18.10;99.90;;;;;;5046562;28;20471;-72
2023/09/01 10:51:29;;;;;;;0.45;0.45;;;18.10;99.90;;;;;;5042365;28;20561;-72
2023/09/01 10:53:56;;;;;;;0.60;0.30;;;18.10;99.90;;;;;;5044303;28;20041;-72
2023/09/01 10:56:24;;;;;;;0.30;0.30;;;18.10;99.90;;;;;;5042839;28;20045;-71
2023/09/01 10:58:52;;;;;;;0.15;0.15;;;18.20;99.90;;;;;;5041611;28;20068;-71
2023/09/01 11:01:37;;;;;;;0.22;0.22;;;18.20;99.90;;;;;;5044514;28;20055;-71
2023/09/01 11:04:28;;;;;;;0.10;0.10;;;18.30;99.90;;;;;;5041861;28;20040;-72
2023/09/01 11:06:57;;;;;;;0.30;0.30;;;18.30;99.90;;;;;;5042499;28;20090;-72
2023/09/01 11:09:34;;;;;;;0.17;0.17;;;18.40;99.90;;;;;;5045214;28;20090;-71
2023/09/01 11:12:05;;;;;;;0.32;0.32;;;18.40;99.90;;;;;;5048664;28;20522;-72
2023/09/01 11:14:32;;;;;;;0.10;0.10;;;18.40;99.90;;;;;;5046440;28;20098;-72
2023/09/01 11:16:58;;;;;;;0.17;0.17;;;18.40;99.90;;;;;;5046671;28;20040;-71
2023/09/01 11:19:24;;;;;;;0.20;0.20;;;18.40;99.90;;;;;;5050295;28;20033;-71
2023/09/01 11:21:50;;;;;;;0.00;0.00;;;18.40;99.90;;;;;;5044335;28;20462;-70
2023/09/01 11:24:20;;;;;;;1.17;0.60;;;18.40;99.90;;;;;;5045682;28;20053;-72
2023/09/01 11:26:47;;;;;;;0.22;0.22;;;18.50;99.90;;;;;;5047474;28;20049;-70
2023/09/01 11:29:13;;;;;;;0.28;0.28;;;18.60;99.90;;;;;;5043933;28;20052;-72
2023/09/01 11:31:40;;;;;;;0.50;0.50;;;18.70;99.90;;;;;;5047712;28;20365;-72
2023/09/01 11:34:06;;;;;;;0.43;0.35;;;18.70;99.90;;;;;;5047921;28;21889;-69
2023/09/01 11:36:32;;;;;;;0.30;0.22;;;18.80;99.90;;;;;;5078067;28;20673;-71
2023/09/01 11:38:58;;;;;;;0.40;0.30;;;18.80;99.90;;;;;;5050197;28;20488;-71
2023/09/01 11:41:26;;;;;;;0.30;0.30;;;18.80;99.90;;;;;;5046808;28;20045;-71
2023/09/01 11:43:54;;;;;;;0.17;0.17;;;18.80;99.90;;;;;;5082219;28;20462;-71
2023/09/01 11:46:32;;;;;;;0.90;0.32;;;18.80;99.90;;;;;;5046731;28;20496;-70
2023/09/01 11:49:01;;;;;;;1.30;0.30;;;18.90;99.90;;;;;;5082761;28;20041;-70
2023/09/01 11:51:31;;;;;;;0.10;0.10;;;19.00;99.90;;;;;;5042177;28;20095;-72
2023/09/01 11:53:57;;;;;;;0.77;0.77;;;19.00;99.90;;;;;;5046158;28;20037;-69
2023/09/01 11:56:23;;;;;;;0.17;0.17;;;19.10;99.90;;;;;;5038395;28;20095;-70
2023/09/01 11:58:49;;;;;;;0.10;0.10;;;19.10;99.90;;;;;;5048683;28;20402;-71
2023/09/01 12:01:16;;;;;;;0.10;0.10;;;19.10;99.90;;;;;;5046941;28;20296;-72
2023/09/01 12:03:50;;;;;;;0.30;0.30;;;19.10;99.90;;;;;;5046626;28;20033;-70
2023/09/01 12:06:20;;;;;;;0.35;0.35;;;19.10;99.90;;;;;;5045499;28;20060;-70
2023/09/01 12:08:46;;;;;;;0.30;0.30;;;19.10;99.90;;;;;;5048127;28;20523;-71
2023/09/01 12:11:13;;;;;;;0.52;0.30;;;19.20;99.90;;;;;;5045935;28;20067;-69
2023/09/01 12:13:39;;;;;;;3.40;0.68;;;19.10;99.90;;;;;;5077104;28;20071;-70
2023/09/01 12:16:05;;;;;;;0.05;0.05;;;19.10;99.90;;;;;;5044518;28;20036;-69
2023/09/01 12:18:38;;;;;;;0.52;0.52;;;19.10;99.90;;;;;;5026869;28;20032;-69
2023/09/01 12:21:09;;;;;;;0.65;0.28;;;19.10;99.90;;;;;;5045083;28;20076;-70
2023/09/01 12:23:41;;;;;;;0.00;0.00;;;19.20;99.90;;;;;;5078710;28;20464;-70
2023/09/01 12:26:07;;;;;;;;;;;19.20;99.90;;;;;;5040876;28;20049;-70
2023/09/01 12:28:34;;;;;;;0.90;0.38;;;19.20;99.90;;;;;;5075405;28;19947;-70
2023/09/01 12:31:01;;;;;;;0.10;0.10;;;19.20;99.90;;;;;;5043320;28;20151;-70
2023/09/01 12:33:27;;;;;;;0.13;0.13;;;19.30;99.90;;;;;;5077114;28;20047;-69
2023/09/01 12:35:53;;;;;;;0.52;0.52;;;19.30;99.90;;;;;;5043449;28;20032;-69
2023/09/01 12:38:19;;;;;;;0.35;0.35;;;19.20;99.90;;;;;;5046396;28;20033;-70
2023/09/01 12:40:46;;;;;;;0.17;0.17;;;19.30;99.90;;;;;;5040761;28;20033;-69
2023/09/01 12:43:11;;;;;;;0.65;0.22;;;19.30;99.90;;;;;;5043970;28;20053;-70
2023/09/01 12:45:37;;;;;;;0.17;0.17;;;19.50;99.90;;;;;;5040246;28;20043;-70
2023/09/01 12:48:05;;;;;;;0.65;0.32;;;19.60;99.90;;;;;;5042399;28;20071;-70
2023/09/01 12:50:31;;;;;;;1.27;0.38;;;19.70;99.90;;;;;;5044368;28;20032;-68
2023/09/01 12:52:57;;;;;;;0.43;0.13;;;19.80;99.90;;;;;;5039272;28;20055;-69
2023/09/01 12:55:24;;;;;;;0.25;0.25;;;19.80;99.90;;;;;;5077636;28;20033;-69
2023/09/01 12:57:50;;;;;;;1.50;0.28;;;19.90;99.90;;;;;;5040826;28;20059;-70
2023/09/01 13:00:16;;;;;;;0.47;0.47;;;19.80;99.90;;;;;;5039462;28;20468;-68
2023/09/01 13:02:42;;;;;;;0.28;0.28;;;19.80;99.90;;;;;;5044519;28;20053;-69
2023/09/01 13:05:08;;;;;;;3.50;0.60;;;19.70;99.90;;;;;;5076729;28;20041;-70
2023/09/01 13:07:34;;;;;;;0.55;0.55;;;19.70;99.90;;;;;;5043583;28;20068;-70
2023/09/01 13:10:00;;;;;;;0.28;0.28;;;19.70;99.90;;;;;;5044625;28;20087;-70
2023/09/01 13:12:26;;;;;;;0.85;0.85;;;19.70;99.90;;;;;;5045926;28;20041;-69
2023/09/01 13:14:52;;;;;;;0.10;0.10;;;19.60;99.90;;;;;;5042104;28;20041;-70
2023/09/01 13:17:18;;;;;;;0.35;0.20;;;19.50;99.90;;;;;;5026859;28;20029;-71
2023/09/01 13:19:43;;;;;;;0.10;0.10;;;19.50;99.90;;;;;;5042196;28;20095;-70
2023/09/01 13:22:09;;;;;;;0.35;0.30;;;19.50;99.90;;;;;;5040007;28;20090;-70
2023/09/01 13:24:34;;;;;;;0.00;0.00;;;19.50;99.90;;;;;;5043427;28;20044;-69
2023/09/01 13:27:00;;;;;;;0.10;0.10;;;19.50;99.90;;;;;;5043885;28;20545;-69
2023/09/01 13:29:25;;;;;;;0.20;0.20;;;19.50;99.90;;;;;;5044109;28;20407;-70
2023/09/01 13:31:51;;;;;;;0.22;0.22;;;19.40;99.90;;;;;;5043100;28;20045;-70
2023/09/01 13:34:17;;;;;;;0.28;0.28;;;19.40;99.90;;;;;;5044346;28;20075;-69
2023/09/01 13:36:42;;;;;;;0.10;0.10;;;19.30;99.90;;;;;;5042028;28;20048;-70
2023/09/01 13:39:08;;;;;;;0.22;0.22;;;19.30;99.90;;;;;;5043663;28;20044;-70
2023/09/01 13:41:33;;;;;;;0.43;0.10;;;19.30;99.90;;;;;;5043505;28;20045;-70
2023/09/01 13:43:59;;;;;;;0.20;0.20;;;19.40;99.90;;;;;;5045038;28;20600;-69
2023/09/01 13:46:26;;;;;;;0.45;0.35;;;19.40;99.90;;;;;;5044359;28;20550;-69
2023/09/01 13:48:56;;;;;;;0.50;0.50;;;19.40;99.90;;;;;;5042212;28;20372;-70
2023/09/01 13:51:23;;;;;;;0.10;0.10;;;19.40;99.90;;;;;;5044979;28;20033;-70
2023/09/01 13:53:50;;;;;;;0.20;0.20;;;19.40;99.90;;;;;;5047449;28;20051;-70
2023/09/01 13:56:16;;;;;;;0.10;0.10;;;19.50;99.90;;;;;;5043686;28;20115;-69
2023/09/01 13:58:42;;;;;;;0.10;0.10;;;19.50;99.90;;;;;;5047864;28;20571;-71
2023/09/01 14:01:07;;;;;;;0.10;0.10;;;19.60;99.90;;;;;;5079471;28;20033;-71
2023/09/01 14:03:33;;;;;;;0.10;0.10;;;19.60;99.90;;;;;;5046213;28;20403;-69
2023/09/01 14:05:59;;;;;;;0.15;0.15;;;19.60;99.90;;;;;;5044265;28;20076;-70
2023/09/01 14:08:27;;;;;;;0.17;0.17;;;19.70;99.90;;;;;;5077328;28;20472;-70
2023/09/01 14:10:54;;;;;;;0.10;0.10;;;19.60;99.90;;;;;;5044287;28;20064;-70
2023/09/01 14:13:20;;;;;;;1.88;0.20;;;19.70;99.90;;;;;;5045611;28;20036;-70